sensor_id;sensor_type;location;lat;lon;timestamp;temperature;humidity
48686;DHT22;34485;51.536;3.816;2024-03-02T00:00:10;6.10;99.90
48686;DHT22;34485;51.536;3.816;2024-03-02T00:02:42;6.20;99.90
48686;DHT22;34485;51.536;3.816;2024-03-02T00:05:13;6.10;99.90
48686;DHT22;34485;51.536;3.816;2024-03-02T00:07:43;6.10;99.90
48686;DHT22;34485;51.536;3.816;2024-03-02T00:10:11;6.10;99.90
48686;DHT22;34485;51.536;3.816;2024-03-02T00:12:37;6.20;99.90
48686;DHT22;34485;51.536;3.816;2024-03-02T00:15:35;6.10;99.90
48686;DHT22;34485;51.536;3.816;2024-03-02T00:18:06;6.20;99.90
48686;DHT22;34485;51.536;3.816;2024-03-02T00:20:32;6.20;99.90
48686;DHT22;34485;51.536;3.816;2024-03-02T00:23:08;6.20;99.90
48686;DHT22;34485;51.536;3.816;2024-03-02T00:28:20;6.20;99.90
48686;DHT22;34485;51.536;3.816;2024-03-02T00:33:26;6.20;99.90
48686;DHT22;34485;51.536;3.816;2024-03-02T00:35:53;6.20;99.90
48686;DHT22;34485;51.536;3.816;2024-03-02T00:38:19;6.20;99.90
48686;DHT22;34485;51.536;3.816;2024-03-02T00:40:45;6.20;99.90
48686;DHT22;34485;51.536;3.816;2024-03-02T00:43:38;6.20;99.90
48686;DHT22;34485;51.536;3.816;2024-03-02T00:46:06;6.30;99.90
48686;DHT22;34485;51.536;3.816;2024-03-02T00:48:32;6.30;99.90
48686;DHT22;34485;51.536;3.816;2024-03-02T00:51:02;6.30;99.90
48686;DHT22;34485;51.536;3.816;2024-03-02T00:53:30;6.30;99.90
48686;DHT22;34485;51.536;3.816;2024-03-02T00:55:57;6.30;99.90
48686;DHT22;34485;51.536;3.816;2024-03-02T00:58:22;6.20;99.90
48686;DHT22;34485;51.536;3.816;2024-03-02T01:00:48;6.30;99.90
48686;DHT22;34485;51.536;3.816;2024-03-02T01:03:14;6.20;99.90
48686;DHT22;34485;51.536;3.816;2024-03-02T01:05:43;6.20;99.90
48686;DHT22;34485;51.536;3.816;2024-03-02T01:08:12;6.20;99.90
48686;DHT22;34485;51.536;3.816;2024-03-02T01:10:37;6.20;99.90
48686;DHT22;34485;51.536;3.816;2024-03-02T01:13:03;6.10;99.90
48686;DHT22;34485;51.536;3.816;2024-03-02T01:15:29;6.10;99.90
48686;DHT22;34485;51.536;3.816;2024-03-02T01:17:54;6.10;99.90
48686;DHT22;34485;51.536;3.816;2024-03-02T01:22:47;6.10;99.90
48686;DHT22;34485;51.536;3.816;2024-03-02T01:25:13;6.00;99.90
48686;DHT22;34485;51.536;3.816;2024-03-02T01:27:39;6.00;99.90
48686;DHT22;34485;51.536;3.816;2024-03-02T01:30:05;6.00;99.90
48686;DHT22;34485;51.536;3.816;2024-03-02T01:32:31;6.00;99.90
48686;DHT22;34485;51.536;3.816;2024-03-02T01:34:56;6.00;99.90
48686;DHT22;34485;51.536;3.816;2024-03-02T01:37:22;6.00;99.90
48686;DHT22;34485;51.536;3.816;2024-03-02T01:39:48;6.00;99.90
48686;DHT22;34485;51.536;3.816;2024-03-02T01:42:13;6.10;99.90
48686;DHT22;34485;51.536;3.816;2024-03-02T01:44:40;6.10;99.90
48686;DHT22;34485;51.536;3.816;2024-03-02T01:47:05;6.10;99.90
48686;DHT22;34485;51.536;3.816;2024-03-02T01:49:32;6.10;99.90
48686;DHT22;34485;51.536;3.816;2024-03-02T01:51:59;6.10;99.90
48686;DHT22;34485;51.536;3.816;2024-03-02T01:54:25;6.10;99.90
48686;DHT22;34485;51.536;3.816;2024-03-02T01:56:51;6.20;99.90
48686;DHT22;34485;51.536;3.816;2024-03-02T01:59:17;6.20;99.90
48686;DHT22;34485;51.536;3.816;2024-03-02T02:01:42;6.30;99.90
48686;DHT22;34485;51.536;3.816;2024-03-02T02:04:08;6.30;99.90
48686;DHT22;34485;51.536;3.816;2024-03-02T02:06:34;6.30;99.90
48686;DHT22;34485;51.536;3.816;2024-03-02T02:09:00;6.30;99.90
48686;DHT22;34485;51.536;3.816;2024-03-02T02:11:26;6.40;99.90
48686;DHT22;34485;51.536;3.816;2024-03-02T02:13:52;6.40;99.90
48686;DHT22;34485;51.536;3.816;2024-03-02T02:16:17;6.40;99.90
48686;DHT22;34485;51.536;3.816;2024-03-02T02:18:43;6.40;99.90
48686;DHT22;34485;51.536;3.816;2024-03-02T02:21:08;6.40;99.90
48686;DHT22;34485;51.536;3.816;2024-03-02T02:23:34;6.40;99.90
48686;DHT22;34485;51.536;3.816;2024-03-02T02:26:00;6.40;99.90
48686;DHT22;34485;51.536;3.816;2024-03-02T02:28:27;6.40;99.90
48686;DHT22;34485;51.536;3.816;2024-03-02T02:30:55;6.40;99.90
48686;DHT22;34485;51.536;3.816;2024-03-02T02:33:22;6.30;99.90
48686;DHT22;34485;51.536;3.816;2024-03-02T02:35:47;6.30;99.90
48686;DHT22;34485;51.536;3.816;2024-03-02T02:38:13;6.30;99.90
48686;DHT22;34485;51.536;3.816;2024-03-02T02:40:39;6.20;99.90
48686;DHT22;34485;51.536;3.816;2024-03-02T02:43:05;6.20;99.90
48686;DHT22;34485;51.536;3.816;2024-03-02T02:45:32;6.20;99.90
48686;DHT22;34485;51.536;3.816;2024-03-02T02:47:58;6.20;99.90
48686;DHT22;34485;51.536;3.816;2024-03-02T02:50:23;6.30;99.90
48686;DHT22;34485;51.536;3.816;2024-03-02T02:52:49;6.30;99.90
48686;DHT22;34485;51.536;3.816;2024-03-02T02:55:16;6.30;99.90
48686;DHT22;34485;51.536;3.816;2024-03-02T02:57:42;6.20;99.90
48686;DHT22;34485;51.536;3.816;2024-03-02T03:00:11;6.30;99.90
48686;DHT22;34485;51.536;3.816;2024-03-02T03:02:44;6.30;99.90
48686;DHT22;34485;51.536;3.816;2024-03-02T03:05:11;6.40;99.90
48686;DHT22;34485;51.536;3.816;2024-03-02T03:07:39;6.40;99.90
48686;DHT22;34485;51.536;3.816;2024-03-02T03:10:05;6.40;99.90
48686;DHT22;34485;51.536;3.816;2024-03-02T03:12:32;6.40;99.90
48686;DHT22;34485;51.536;3.816;2024-03-02T03:14:58;6.40;99.90
48686;DHT22;34485;51.536;3.816;2024-03-02T03:17:24;6.40;99.90
48686;DHT22;34485;51.536;3.816;2024-03-02T03:19:50;6.50;99.90
48686;DHT22;34485;51.536;3.816;2024-03-02T03:22:16;6.50;99.90
48686;DHT22;34485;51.536;3.816;2024-03-02T03:24:42;6.50;99.90
48686;DHT22;34485;51.536;3.816;2024-03-02T03:27:07;6.50;99.90
48686;DHT22;34485;51.536;3.816;2024-03-02T03:29:33;6.50;99.90
48686;DHT22;34485;51.536;3.816;2024-03-02T03:31:59;6.60;99.90
48686;DHT22;34485;51.536;3.816;2024-03-02T03:34:24;6.60;99.90
48686;DHT22;34485;51.536;3.816;2024-03-02T03:36:50;6.60;99.90
48686;DHT22;34485;51.536;3.816;2024-03-02T03:39:16;6.60;99.90
48686;DHT22;34485;51.536;3.816;2024-03-02T03:41:43;6.60;99.90
48686;DHT22;34485;51.536;3.816;2024-03-02T03:44:08;6.60;99.90
48686;DHT22;34485;51.536;3.816;2024-03-02T03:46:34;6.60;99.90
48686;DHT22;34485;51.536;3.816;2024-03-02T03:49:00;6.50;99.90
48686;DHT22;34485;51.536;3.816;2024-03-02T03:51:26;6.50;99.90
48686;DHT22;34485;51.536;3.816;2024-03-02T03:53:51;6.50;99.90
48686;DHT22;34485;51.536;3.816;2024-03-02T03:56:17;6.50;99.90
48686;DHT22;34485;51.536;3.816;2024-03-02T03:58:43;6.50;99.90
48686;DHT22;34485;51.536;3.816;2024-03-02T04:01:08;6.40;99.90
48686;DHT22;34485;51.536;3.816;2024-03-02T04:03:34;6.40;99.90
48686;DHT22;34485;51.536;3.816;2024-03-02T04:06:00;6.30;99.90
48686;DHT22;34485;51.536;3.816;2024-03-02T04:08:26;6.30;99.90
48686;DHT22;34485;51.536;3.816;2024-03-02T04:10:51;6.30;99.90
48686;DHT22;34485;51.536;3.816;2024-03-02T04:13:17;6.20;99.90
48686;DHT22;34485;51.536;3.816;2024-03-02T04:15:43;6.20;99.90
48686;DHT22;34485;51.536;3.816;2024-03-02T04:18:08;6.20;99.90
48686;DHT22;34485;51.536;3.816;2024-03-02T04:20:34;6.20;99.90
48686;DHT22;34485;51.536;3.816;2024-03-02T04:23:00;6.20;99.90
48686;DHT22;34485;51.536;3.816;2024-03-02T04:25:26;6.20;99.90
48686;DHT22;34485;51.536;3.816;2024-03-02T04:27:52;6.20;99.90
48686;DHT22;34485;51.536;3.816;2024-03-02T04:30:17;6.20;99.90
48686;DHT22;34485;51.536;3.816;2024-03-02T04:32:43;6.20;99.90
48686;DHT22;34485;51.536;3.816;2024-03-02T04:35:12;6.30;99.90
48686;DHT22;34485;51.536;3.816;2024-03-02T04:37:40;6.30;99.90
48686;DHT22;34485;51.536;3.816;2024-03-02T04:40:06;6.30;99.90
48686;DHT22;34485;51.536;3.816;2024-03-02T04:42:35;6.30;99.90
48686;DHT22;34485;51.536;3.816;2024-03-02T04:45:01;6.40;99.90
48686;DHT22;34485;51.536;3.816;2024-03-02T04:47:27;6.40;99.90
48686;DHT22;34485;51.536;3.816;2024-03-02T04:49:53;6.40;99.90
48686;DHT22;34485;51.536;3.816;2024-03-02T04:52:19;6.40;99.90
48686;DHT22;34485;51.536;3.816;2024-03-02T04:54:45;6.40;99.90
48686;DHT22;34485;51.536;3.816;2024-03-02T04:57:29;6.30;99.90
48686;DHT22;34485;51.536;3.816;2024-03-02T04:59:54;6.30;99.90
48686;DHT22;34485;51.536;3.816;2024-03-02T05:02:20;6.40;99.90
48686;DHT22;34485;51.536;3.816;2024-03-02T05:04:46;6.40;99.90
48686;DHT22;34485;51.536;3.816;2024-03-02T05:07:13;6.40;99.90
48686;DHT22;34485;51.536;3.816;2024-03-02T05:09:39;6.50;99.90
48686;DHT22;34485;51.536;3.816;2024-03-02T05:12:05;6.50;99.90
48686;DHT22;34485;51.536;3.816;2024-03-02T05:14:57;6.50;99.90
48686;DHT22;34485;51.536;3.816;2024-03-02T05:17:22;6.50;99.90
48686;DHT22;34485;51.536;3.816;2024-03-02T05:19:48;6.60;99.90
48686;DHT22;34485;51.536;3.816;2024-03-02T05:22:14;6.60;99.90
48686;DHT22;34485;51.536;3.816;2024-03-02T05:24:39;6.60;99.90
48686;DHT22;34485;51.536;3.816;2024-03-02T05:27:05;6.60;99.90
48686;DHT22;34485;51.536;3.816;2024-03-02T05:29:32;6.60;99.90
48686;DHT22;34485;51.536;3.816;2024-03-02T05:31:59;6.70;99.90
48686;DHT22;34485;51.536;3.816;2024-03-02T05:34:25;6.60;99.90
48686;DHT22;34485;51.536;3.816;2024-03-02T05:36:50;6.70;99.90
48686;DHT22;34485;51.536;3.816;2024-03-02T05:39:16;6.60;99.90
48686;DHT22;34485;51.536;3.816;2024-03-02T05:41:41;6.60;99.90
48686;DHT22;34485;51.536;3.816;2024-03-02T05:44:07;6.60;99.90
48686;DHT22;34485;51.536;3.816;2024-03-02T05:46:33;6.60;99.90
48686;DHT22;34485;51.536;3.816;2024-03-02T05:48:59;6.60;99.90
48686;DHT22;34485;51.536;3.816;2024-03-02T05:51:26;6.60;99.90
48686;DHT22;34485;51.536;3.816;2024-03-02T05:53:52;6.50;99.90
48686;DHT22;34485;51.536;3.816;2024-03-02T05:56:17;6.50;99.90
48686;DHT22;34485;51.536;3.816;2024-03-02T05:58:43;6.50;99.90
48686;DHT22;34485;51.536;3.816;2024-03-02T06:03:55;6.50;99.90
48686;DHT22;34485;51.536;3.816;2024-03-02T06:06:21;6.40;99.90
48686;DHT22;34485;51.536;3.816;2024-03-02T06:08:47;6.30;99.90
48686;DHT22;34485;51.536;3.816;2024-03-02T06:18:30;6.30;99.90
48686;DHT22;34485;51.536;3.816;2024-03-02T06:20:56;6.10;99.90
48686;DHT22;34485;51.536;3.816;2024-03-02T06:23:22;6.10;99.90
48686;DHT22;34485;51.536;3.816;2024-03-02T06:25:47;6.00;99.90
48686;DHT22;34485;51.536;3.816;2024-03-02T06:28:13;6.10;99.90
48686;DHT22;34485;51.536;3.816;2024-03-02T06:30:41;6.10;99.90
48686;DHT22;34485;51.536;3.816;2024-03-02T06:33:08;6.00;99.90
48686;DHT22;34485;51.536;3.816;2024-03-02T06:35:33;6.00;99.90
48686;DHT22;34485;51.536;3.816;2024-03-02T06:38:00;6.00;99.90
48686;DHT22;34485;51.536;3.816;2024-03-02T06:40:26;6.10;99.90
48686;DHT22;34485;51.536;3.816;2024-03-02T06:42:52;6.10;99.90
48686;DHT22;34485;51.536;3.816;2024-03-02T06:45:17;6.00;99.90
48686;DHT22;34485;51.536;3.816;2024-03-02T06:47:43;6.00;99.90
48686;DHT22;34485;51.536;3.816;2024-03-02T06:50:09;6.00;99.90
48686;DHT22;34485;51.536;3.816;2024-03-02T06:52:35;6.00;99.90
48686;DHT22;34485;51.536;3.816;2024-03-02T06:55:01;5.90;99.90
48686;DHT22;34485;51.536;3.816;2024-03-02T06:57:27;5.80;99.90
48686;DHT22;34485;51.536;3.816;2024-03-02T06:59:53;5.80;99.90
48686;DHT22;34485;51.536;3.816;2024-03-02T07:02:22;5.80;99.90
48686;DHT22;34485;51.536;3.816;2024-03-02T07:04:48;5.80;99.90
48686;DHT22;34485;51.536;3.816;2024-03-02T07:07:14;5.80;99.90
48686;DHT22;34485;51.536;3.816;2024-03-02T07:09:40;5.80;99.90
48686;DHT22;34485;51.536;3.816;2024-03-02T07:12:05;5.80;99.90
48686;DHT22;34485;51.536;3.816;2024-03-02T07:14:31;5.90;99.90
48686;DHT22;34485;51.536;3.816;2024-03-02T07:17:21;5.90;99.90
48686;DHT22;34485;51.536;3.816;2024-03-02T07:19:46;6.00;99.90
48686;DHT22;34485;51.536;3.816;2024-03-02T07:22:12;6.00;99.90
48686;DHT22;34485;51.536;3.816;2024-03-02T07:24:41;6.10;99.90
48686;DHT22;34485;51.536;3.816;2024-03-02T07:27:10;6.20;99.90
48686;DHT22;34485;51.536;3.816;2024-03-02T07:29:36;6.30;99.90
48686;DHT22;34485;51.536;3.816;2024-03-02T07:32:02;6.50;99.90
48686;DHT22;34485;51.536;3.816;2024-03-02T07:34:27;6.60;99.90
48686;DHT22;34485;51.536;3.816;2024-03-02T07:36:53;6.70;99.90
48686;DHT22;34485;51.536;3.816;2024-03-02T07:39:19;6.90;99.90
48686;DHT22;34485;51.536;3.816;2024-03-02T07:41:45;7.10;99.90
48686;DHT22;34485;51.536;3.816;2024-03-02T07:44:12;7.30;99.90
48686;DHT22;34485;51.536;3.816;2024-03-02T07:46:44;7.60;99.90
48686;DHT22;34485;51.536;3.816;2024-03-02T07:49:09;7.70;99.90
48686;DHT22;34485;51.536;3.816;2024-03-02T07:51:35;7.80;99.90
48686;DHT22;34485;51.536;3.816;2024-03-02T07:54:04;7.90;99.90
48686;DHT22;34485;51.536;3.816;2024-03-02T07:56:30;8.10;99.90
48686;DHT22;34485;51.536;3.816;2024-03-02T07:58:55;8.20;99.90
48686;DHT22;34485;51.536;3.816;2024-03-02T08:03:49;8.60;99.90
48686;DHT22;34485;51.536;3.816;2024-03-02T08:06:16;8.60;99.90
48686;DHT22;34485;51.536;3.816;2024-03-02T08:08:42;8.70;99.90
48686;DHT22;34485;51.536;3.816;2024-03-02T08:11:08;8.80;99.90
48686;DHT22;34485;51.536;3.816;2024-03-02T08:13:34;8.90;99.90
48686;DHT22;34485;51.536;3.816;2024-03-02T08:16:00;9.00;99.90
48686;DHT22;34485;51.536;3.816;2024-03-02T08:18:28;9.00;99.90
48686;DHT22;34485;51.536;3.816;2024-03-02T08:20:54;9.30;99.90
48686;DHT22;34485;51.536;3.816;2024-03-02T08:23:20;9.30;99.90
48686;DHT22;34485;51.536;3.816;2024-03-02T08:28:12;9.00;99.90
48686;DHT22;34485;51.536;3.816;2024-03-02T08:30:38;9.10;99.90
48686;DHT22;34485;51.536;3.816;2024-03-02T08:33:04;9.20;99.90
48686;DHT22;34485;51.536;3.816;2024-03-02T08:35:31;9.30;99.90
48686;DHT22;34485;51.536;3.816;2024-03-02T08:38:01;9.50;99.90
48686;DHT22;34485;51.536;3.816;2024-03-02T08:40:27;9.70;99.90
48686;DHT22;34485;51.536;3.816;2024-03-02T08:42:52;9.80;99.90
48686;DHT22;34485;51.536;3.816;2024-03-02T08:45:18;9.80;99.90
48686;DHT22;34485;51.536;3.816;2024-03-02T08:47:46;9.80;99.90
48686;DHT22;34485;51.536;3.816;2024-03-02T08:50:12;9.80;99.90
48686;DHT22;34485;51.536;3.816;2024-03-02T08:52:38;9.90;99.90
48686;DHT22;34485;51.536;3.816;2024-03-02T08:55:04;10.00;99.90
48686;DHT22;34485;51.536;3.816;2024-03-02T08:57:30;9.90;99.90
48686;DHT22;34485;51.536;3.816;2024-03-02T08:59:56;10.00;99.90
48686;DHT22;34485;51.536;3.816;2024-03-02T09:02:22;10.10;99.90
48686;DHT22;34485;51.536;3.816;2024-03-02T09:04:48;10.10;99.90
48686;DHT22;34485;51.536;3.816;2024-03-02T09:07:14;10.10;99.90
48686;DHT22;34485;51.536;3.816;2024-03-02T09:09:40;10.20;99.90
48686;DHT22;34485;51.536;3.816;2024-03-02T09:12:06;10.10;99.90
48686;DHT22;34485;51.536;3.816;2024-03-02T09:14:32;10.00;99.90
48686;DHT22;34485;51.536;3.816;2024-03-02T09:16:58;10.20;99.90
48686;DHT22;34485;51.536;3.816;2024-03-02T09:19:24;10.30;99.90
48686;DHT22;34485;51.536;3.816;2024-03-02T09:21:49;10.30;99.90
48686;DHT22;34485;51.536;3.816;2024-03-02T09:24:16;10.60;99.90
48686;DHT22;34485;51.536;3.816;2024-03-02T09:26:41;10.60;98.50
48686;DHT22;34485;51.536;3.816;2024-03-02T09:29:07;10.40;99.90
48686;DHT22;34485;51.536;3.816;2024-03-02T09:31:32;10.30;99.90
48686;DHT22;34485;51.536;3.816;2024-03-02T09:33:58;10.00;99.90
48686;DHT22;34485;51.536;3.816;2024-03-02T09:38:50;9.60;99.90
48686;DHT22;34485;51.536;3.816;2024-03-02T09:41:16;9.40;99.90
48686;DHT22;34485;51.536;3.816;2024-03-02T09:43:41;9.60;99.90
48686;DHT22;34485;51.536;3.816;2024-03-02T09:46:11;10.10;99.90
48686;DHT22;34485;51.536;3.816;2024-03-02T09:48:37;10.40;99.90
48686;DHT22;34485;51.536;3.816;2024-03-02T09:51:04;10.40;99.90
48686;DHT22;34485;51.536;3.816;2024-03-02T09:53:32;10.10;99.90
48686;DHT22;34485;51.536;3.816;2024-03-02T09:55:59;10.10;99.90
48686;DHT22;34485;51.536;3.816;2024-03-02T09:58:25;9.80;99.90
48686;DHT22;34485;51.536;3.816;2024-03-02T10:00:51;10.00;99.90
48686;DHT22;34485;51.536;3.816;2024-03-02T10:03:18;10.40;99.90
48686;DHT22;34485;51.536;3.816;2024-03-02T10:05:44;10.80;99.90
48686;DHT22;34485;51.536;3.816;2024-03-02T10:08:10;11.20;99.70
48686;DHT22;34485;51.536;3.816;2024-03-02T10:10:40;11.20;98.10
48686;DHT22;34485;51.536;3.816;2024-03-02T10:13:08;11.20;97.30
48686;DHT22;34485;51.536;3.816;2024-03-02T10:15:34;11.20;97.50
48686;DHT22;34485;51.536;3.816;2024-03-02T10:18:00;11.20;97.40
48686;DHT22;34485;51.536;3.816;2024-03-02T10:20:27;11.30;97.40
48686;DHT22;34485;51.536;3.816;2024-03-02T10:23:15;11.60;97.70
48686;DHT22;34485;51.536;3.816;2024-03-02T10:25:41;11.20;97.30
48686;DHT22;34485;51.536;3.816;2024-03-02T10:28:07;11.20;96.80
48686;DHT22;34485;51.536;3.816;2024-03-02T10:30:33;11.40;97.10
48686;DHT22;34485;51.536;3.816;2024-03-02T10:33:01;11.60;97.50
48686;DHT22;34485;51.536;3.816;2024-03-02T10:35:27;11.60;95.90
48686;DHT22;34485;51.536;3.816;2024-03-02T10:37:53;11.70;96.80
48686;DHT22;34485;51.536;3.816;2024-03-02T10:40:22;11.80;97.20
48686;DHT22;34485;51.536;3.816;2024-03-02T10:42:50;11.70;93.80
48686;DHT22;34485;51.536;3.816;2024-03-02T10:45:16;11.40;97.00
48686;DHT22;34485;51.536;3.816;2024-03-02T10:47:47;11.40;95.90
48686;DHT22;34485;51.536;3.816;2024-03-02T10:50:13;11.60;96.50
48686;DHT22;34485;51.536;3.816;2024-03-02T10:52:39;11.50;94.90
48686;DHT22;34485;51.536;3.816;2024-03-02T11:15:10;10.60;99.90
48686;DHT22;34485;51.536;3.816;2024-03-02T11:17:39;10.60;99.90
48686;DHT22;34485;51.536;3.816;2024-03-02T11:20:07;10.90;99.90
48686;DHT22;34485;51.536;3.816;2024-03-02T11:22:35;11.00;99.70
48686;DHT22;34485;51.536;3.816;2024-03-02T11:25:02;10.80;97.90
48686;DHT22;34485;51.536;3.816;2024-03-02T11:32:56;10.60;99.90
48686;DHT22;34485;51.536;3.816;2024-03-02T11:35:24;10.60;99.80
48686;DHT22;34485;51.536;3.816;2024-03-02T11:37:54;10.90;99.90
48686;DHT22;34485;51.536;3.816;2024-03-02T11:40:24;10.90;98.50
48686;DHT22;34485;51.536;3.816;2024-03-02T11:42:50;10.90;99.70
48686;DHT22;34485;51.536;3.816;2024-03-02T11:45:26;10.70;97.60
48686;DHT22;34485;51.536;3.816;2024-03-02T11:47:54;10.70;98.30
48686;DHT22;34485;51.536;3.816;2024-03-02T11:50:34;10.90;99.70
48686;DHT22;34485;51.536;3.816;2024-03-02T11:53:01;11.00;99.90
48686;DHT22;34485;51.536;3.816;2024-03-02T11:55:28;11.20;98.80
48686;DHT22;34485;51.536;3.816;2024-03-02T11:57:56;11.20;96.60
48686;DHT22;34485;51.536;3.816;2024-03-02T12:00:22;11.00;98.10
48686;DHT22;34485;51.536;3.816;2024-03-02T12:03:07;11.10;98.30
48686;DHT22;34485;51.536;3.816;2024-03-02T12:05:34;11.30;99.40
48686;DHT22;34485;51.536;3.816;2024-03-02T12:08:05;11.70;98.10
48686;DHT22;34485;51.536;3.816;2024-03-02T12:10:32;11.80;96.10
48686;DHT22;34485;51.536;3.816;2024-03-02T12:13:06;11.80;95.50
48686;DHT22;34485;51.536;3.816;2024-03-02T12:15:34;11.70;95.30
48686;DHT22;34485;51.536;3.816;2024-03-02T12:18:01;11.60;93.50
48686;DHT22;34485;51.536;3.816;2024-03-02T12:20:29;11.70;96.10
48686;DHT22;34485;51.536;3.816;2024-03-02T12:22:57;11.80;97.00
48686;DHT22;34485;51.536;3.816;2024-03-02T12:25:24;11.80;94.10
48686;DHT22;34485;51.536;3.816;2024-03-02T12:27:58;11.80;94.70
48686;DHT22;34485;51.536;3.816;2024-03-02T12:30:27;11.80;94.30
48686;DHT22;34485;51.536;3.816;2024-03-02T12:32:54;11.60;95.70
48686;DHT22;34485;51.536;3.816;2024-03-02T12:35:20;11.50;95.30
48686;DHT22;34485;51.536;3.816;2024-03-02T12:37:50;11.50;94.80
48686;DHT22;34485;51.536;3.816;2024-03-02T12:40:18;11.50;95.70
48686;DHT22;34485;51.536;3.816;2024-03-02T12:42:45;11.50;96.30
48686;DHT22;34485;51.536;3.816;2024-03-02T12:45:12;11.50;96.60
48686;DHT22;34485;51.536;3.816;2024-03-02T12:47:39;11.50;96.80
48686;DHT22;34485;51.536;3.816;2024-03-02T12:50:06;11.40;95.40
48686;DHT22;34485;51.536;3.816;2024-03-02T12:55:00;11.40;96.10
48686;DHT22;34485;51.536;3.816;2024-03-02T12:57:27;11.40;96.80
48686;DHT22;34485;51.536;3.816;2024-03-02T12:59:58;11.30;96.70
48686;DHT22;34485;51.536;3.816;2024-03-02T13:02:27;11.20;96.60
48686;DHT22;34485;51.536;3.816;2024-03-02T13:04:54;11.20;99.80
48686;DHT22;34485;51.536;3.816;2024-03-02T13:07:20;11.10;99.90
48686;DHT22;34485;51.536;3.816;2024-03-02T13:09:49;11.10;99.90
48686;DHT22;34485;51.536;3.816;2024-03-02T13:12:19;10.90;99.90
48686;DHT22;34485;51.536;3.816;2024-03-02T13:14:48;10.90;99.90
48686;DHT22;34485;51.536;3.816;2024-03-02T13:17:15;10.70;99.90
48686;DHT22;34485;51.536;3.816;2024-03-02T13:19:58;10.70;99.90
48686;DHT22;34485;51.536;3.816;2024-03-02T13:22:27;10.70;99.90
48686;DHT22;34485;51.536;3.816;2024-03-02T13:24:53;10.70;99.90
48686;DHT22;34485;51.536;3.816;2024-03-02T13:27:23;10.70;99.90
48686;DHT22;34485;51.536;3.816;2024-03-02T13:29:49;10.70;99.90
48686;DHT22;34485;51.536;3.816;2024-03-02T13:32:15;10.70;99.90
48686;DHT22;34485;51.536;3.816;2024-03-02T13:34:41;10.70;99.90
48686;DHT22;34485;51.536;3.816;2024-03-02T13:37:08;10.70;99.90
48686;DHT22;34485;51.536;3.816;2024-03-02T13:39:34;10.60;99.90
48686;DHT22;34485;51.536;3.816;2024-03-02T13:42:09;10.60;99.90
48686;DHT22;34485;51.536;3.816;2024-03-02T13:44:35;10.60;99.90
48686;DHT22;34485;51.536;3.816;2024-03-02T13:47:01;10.50;99.90
48686;DHT22;34485;51.536;3.816;2024-03-02T13:49:27;10.40;99.90
48686;DHT22;34485;51.536;3.816;2024-03-02T13:51:59;10.40;99.90
48686;DHT22;34485;51.536;3.816;2024-03-02T13:54:26;10.30;99.90
48686;DHT22;34485;51.536;3.816;2024-03-02T13:56:52;10.20;99.90
48686;DHT22;34485;51.536;3.816;2024-03-02T13:59:18;10.10;99.90
48686;DHT22;34485;51.536;3.816;2024-03-02T14:01:44;9.90;99.90
48686;DHT22;34485;51.536;3.816;2024-03-02T14:04:10;9.90;99.90
48686;DHT22;34485;51.536;3.816;2024-03-02T14:06:36;9.80;99.90
48686;DHT22;34485;51.536;3.816;2024-03-02T14:09:01;9.70;99.90
48686;DHT22;34485;51.536;3.816;2024-03-02T14:11:27;9.60;99.90
48686;DHT22;34485;51.536;3.816;2024-03-02T14:13:53;9.50;99.90
48686;DHT22;34485;51.536;3.816;2024-03-02T14:16:20;9.50;99.90
48686;DHT22;34485;51.536;3.816;2024-03-02T14:18:46;9.40;99.90
48686;DHT22;34485;51.536;3.816;2024-03-02T14:21:11;9.40;99.90
48686;DHT22;34485;51.536;3.816;2024-03-02T14:23:37;9.40;99.90
48686;DHT22;34485;51.536;3.816;2024-03-02T14:26:03;9.40;99.90
48686;DHT22;34485;51.536;3.816;2024-03-02T14:28:29;9.40;99.90
48686;DHT22;34485;51.536;3.816;2024-03-02T14:30:54;9.30;99.90
48686;DHT22;34485;51.536;3.816;2024-03-02T14:33:20;9.40;99.90
48686;DHT22;34485;51.536;3.816;2024-03-02T14:35:46;9.40;99.90
48686;DHT22;34485;51.536;3.816;2024-03-02T14:38:12;9.30;99.90
48686;DHT22;34485;51.536;3.816;2024-03-02T14:40:38;9.30;99.90
48686;DHT22;34485;51.536;3.816;2024-03-02T14:43:04;9.30;99.90
48686;DHT22;34485;51.536;3.816;2024-03-02T14:45:29;9.30;99.90
48686;DHT22;34485;51.536;3.816;2024-03-02T14:47:56;9.40;99.90
48686;DHT22;34485;51.536;3.816;2024-03-02T14:50:25;9.40;99.90
48686;DHT22;34485;51.536;3.816;2024-03-02T14:52:51;9.40;99.90
48686;DHT22;34485;51.536;3.816;2024-03-02T14:55:17;9.40;99.90
48686;DHT22;34485;51.536;3.816;2024-03-02T14:57:42;9.40;99.90
48686;DHT22;34485;51.536;3.816;2024-03-02T15:00:09;9.40;99.90
48686;DHT22;34485;51.536;3.816;2024-03-02T15:02:37;9.40;99.90
48686;DHT22;34485;51.536;3.816;2024-03-02T15:05:03;9.40;99.90
48686;DHT22;34485;51.536;3.816;2024-03-02T15:07:31;9.40;99.90
48686;DHT22;34485;51.536;3.816;2024-03-02T15:09:57;9.50;99.90
48686;DHT22;34485;51.536;3.816;2024-03-02T15:12:22;9.50;99.90
48686;DHT22;34485;51.536;3.816;2024-03-02T15:14:48;9.60;99.90
48686;DHT22;34485;51.536;3.816;2024-03-02T15:17:15;9.70;99.90
48686;DHT22;34485;51.536;3.816;2024-03-02T15:19:45;9.80;99.90
48686;DHT22;34485;51.536;3.816;2024-03-02T15:22:11;9.90;99.90
48686;DHT22;34485;51.536;3.816;2024-03-02T15:24:36;9.90;99.90
48686;DHT22;34485;51.536;3.816;2024-03-02T15:27:03;9.90;99.90
48686;DHT22;34485;51.536;3.816;2024-03-02T15:29:34;9.80;99.90
48686;DHT22;34485;51.536;3.816;2024-03-02T15:32:00;9.80;99.90
48686;DHT22;34485;51.536;3.816;2024-03-02T15:34:26;9.80;99.90
48686;DHT22;34485;51.536;3.816;2024-03-02T15:36:52;9.70;99.90
48686;DHT22;34485;51.536;3.816;2024-03-02T15:39:18;9.60;99.90
48686;DHT22;34485;51.536;3.816;2024-03-02T15:41:44;9.60;99.90
48686;DHT22;34485;51.536;3.816;2024-03-02T15:44:10;9.60;99.90
48686;DHT22;34485;51.536;3.816;2024-03-02T15:46:36;9.60;99.90
48686;DHT22;34485;51.536;3.816;2024-03-02T15:49:02;9.50;99.90
48686;DHT22;34485;51.536;3.816;2024-03-02T15:51:28;9.50;99.90
48686;DHT22;34485;51.536;3.816;2024-03-02T15:53:54;9.50;99.90
48686;DHT22;34485;51.536;3.816;2024-03-02T15:56:20;9.40;99.90
48686;DHT22;34485;51.536;3.816;2024-03-02T15:58:46;9.40;99.90
48686;DHT22;34485;51.536;3.816;2024-03-02T16:01:12;9.40;99.90
48686;DHT22;34485;51.536;3.816;2024-03-02T16:03:38;9.40;99.90
48686;DHT22;34485;51.536;3.816;2024-03-02T16:06:04;9.40;99.90
48686;DHT22;34485;51.536;3.816;2024-03-02T16:08:30;9.30;99.90
48686;DHT22;34485;51.536;3.816;2024-03-02T16:10:56;9.40;99.90
48686;DHT22;34485;51.536;3.816;2024-03-02T16:13:23;9.40;99.90
48686;DHT22;34485;51.536;3.816;2024-03-02T16:15:48;9.40;99.90
48686;DHT22;34485;51.536;3.816;2024-03-02T16:18:14;9.40;99.90
48686;DHT22;34485;51.536;3.816;2024-03-02T16:20:40;9.40;99.90
48686;DHT22;34485;51.536;3.816;2024-03-02T16:23:06;9.40;99.90
48686;DHT22;34485;51.536;3.816;2024-03-02T16:25:33;9.40;99.90
48686;DHT22;34485;51.536;3.816;2024-03-02T16:28:00;9.40;99.90
48686;DHT22;34485;51.536;3.816;2024-03-02T16:30:28;9.40;99.90
48686;DHT22;34485;51.536;3.816;2024-03-02T16:32:54;9.40;99.90